sensor_id;sensor_type;location;lat;lon;timestamp;P1;durP1;ratioP1;P2;durP2;ratioP2
72422;SDS011;71399;54.146;38.734;2024-03-02T00:00:23;27.08;;;11.95;;
72422;SDS011;71399;54.146;38.734;2024-03-02T00:02:51;34.42;;;13.27;;
72422;SDS011;71399;54.146;38.734;2024-03-02T00:05:21;32.17;;;13.73;;
72422;SDS011;71399;54.146;38.734;2024-03-02T00:07:55;45.88;;;15.90;;
72422;SDS011;71399;54.146;38.734;2024-03-02T00:12:54;44.55;;;15.40;;
72422;SDS011;71399;54.146;38.734;2024-03-02T00:15:46;41.17;;;16.75;;
72422;SDS011;71399;54.146;38.734;2024-03-02T00:18:12;50.60;;;18.10;;
72422;SDS011;71399;54.146;38.734;2024-03-02T00:20:42;42.30;;;15.73;;
72422;SDS011;71399;54.146;38.734;2024-03-02T00:23:09;42.85;;;16.48;;
72422;SDS011;71399;54.146;38.734;2024-03-02T00:25:41;47.60;;;17.42;;
72422;SDS011;71399;54.146;38.734;2024-03-02T00:28:25;40.25;;;14.85;;
72422;SDS011;71399;54.146;38.734;2024-03-02T00:30:56;42.70;;;14.70;;
72422;SDS011;71399;54.146;38.734;2024-03-02T00:33:25;39.00;;;13.85;;
72422;SDS011;71399;54.146;38.734;2024-03-02T00:35:56;32.03;;;12.05;;
72422;SDS011;71399;54.146;38.734;2024-03-02T00:38:23;33.80;;;12.15;;
72422;SDS011;71399;54.146;38.734;2024-03-02T00:40:50;37.40;;;14.32;;
72422;SDS011;71399;54.146;38.734;2024-03-02T00:46:15;33.15;;;13.57;;
72422;SDS011;71399;54.146;38.734;2024-03-02T00:51:13;37.38;;;13.25;;
72422;SDS011;71399;54.146;38.734;2024-03-02T00:53:40;33.13;;;12.93;;
72422;SDS011;71399;54.146;38.734;2024-03-02T00:56:09;35.92;;;12.93;;
72422;SDS011;71399;54.146;38.734;2024-03-02T00:58:37;37.35;;;14.15;;
72422;SDS011;71399;54.146;38.734;2024-03-02T01:01:04;35.58;;;13.02;;
72422;SDS011;71399;54.146;38.734;2024-03-02T01:03:33;36.25;;;13.65;;
72422;SDS011;71399;54.146;38.734;2024-03-02T01:06:00;30.70;;;13.13;;
72422;SDS011;71399;54.146;38.734;2024-03-02T01:08:26;29.38;;;13.05;;
72422;SDS011;71399;54.146;38.734;2024-03-02T01:10:53;30.10;;;12.50;;
72422;SDS011;71399;54.146;38.734;2024-03-02T01:13:21;35.25;;;12.68;;
72422;SDS011;71399;54.146;38.734;2024-03-02T01:15:49;31.65;;;11.63;;
72422;SDS011;71399;54.146;38.734;2024-03-02T01:18:15;26.10;;;10.20;;
72422;SDS011;71399;54.146;38.734;2024-03-02T01:20:42;25.02;;;11.35;;
72422;SDS011;71399;54.146;38.734;2024-03-02T01:23:08;29.05;;;11.45;;
72422;SDS011;71399;54.146;38.734;2024-03-02T01:25:35;23.52;;;8.60;;
72422;SDS011;71399;54.146;38.734;2024-03-02T01:28:01;19.17;;;9.60;;
72422;SDS011;71399;54.146;38.734;2024-03-02T01:30:28;15.90;;;7.45;;
72422;SDS011;71399;54.146;38.734;2024-03-02T01:32:54;21.17;;;7.97;;
72422;SDS011;71399;54.146;38.734;2024-03-02T01:35:20;23.08;;;8.35;;
72422;SDS011;71399;54.146;38.734;2024-03-02T01:37:46;23.33;;;9.10;;
72422;SDS011;71399;54.146;38.734;2024-03-02T01:40:13;20.23;;;9.75;;
72422;SDS011;71399;54.146;38.734;2024-03-02T01:42:39;17.25;;;7.95;;
72422;SDS011;71399;54.146;38.734;2024-03-02T01:45:06;18.63;;;8.63;;
72422;SDS011;71399;54.146;38.734;2024-03-02T01:47:34;15.82;;;7.55;;
72422;SDS011;71399;54.146;38.734;2024-03-02T01:50:00;15.23;;;7.03;;
72422;SDS011;71399;54.146;38.734;2024-03-02T01:52:29;16.40;;;7.53;;
72422;SDS011;71399;54.146;38.734;2024-03-02T01:54:55;15.65;;;7.90;;
72422;SDS011;71399;54.146;38.734;2024-03-02T01:57:22;17.42;;;8.77;;
72422;SDS011;71399;54.146;38.734;2024-03-02T01:59:48;14.13;;;7.85;;
72422;SDS011;71399;54.146;38.734;2024-03-02T02:02:16;20.88;;;7.97;;
72422;SDS011;71399;54.146;38.734;2024-03-02T02:04:43;15.95;;;7.78;;
72422;SDS011;71399;54.146;38.734;2024-03-02T02:07:09;16.63;;;8.38;;
72422;SDS011;71399;54.146;38.734;2024-03-02T02:09:36;16.33;;;7.82;;
72422;SDS011;71399;54.146;38.734;2024-03-02T02:12:02;18.13;;;7.97;;
72422;SDS011;71399;54.146;38.734;2024-03-02T02:14:32;19.25;;;7.85;;
72422;SDS011;71399;54.146;38.734;2024-03-02T02:16:58;19.73;;;8.95;;
72422;SDS011;71399;54.146;38.734;2024-03-02T02:19:25;18.77;;;7.80;;
72422;SDS011;71399;54.146;38.734;2024-03-02T02:21:51;18.58;;;8.45;;
72422;SDS011;71399;54.146;38.734;2024-03-02T02:24:17;19.00;;;8.88;;
72422;SDS011;71399;54.146;38.734;2024-03-02T02:26:43;16.15;;;7.47;;
72422;SDS011;71399;54.146;38.734;2024-03-02T02:29:09;20.02;;;8.30;;
72422;SDS011;71399;54.146;38.734;2024-03-02T02:31:39;17.58;;;7.53;;
72422;SDS011;71399;54.146;38.734;2024-03-02T02:34:07;15.55;;;7.35;;
72422;SDS011;71399;54.146;38.734;2024-03-02T02:36:36;21.67;;;8.40;;
72422;SDS011;71399;54.146;38.734;2024-03-02T02:39:04;23.52;;;10.30;;
72422;SDS011;71399;54.146;38.734;2024-03-02T02:41:32;27.58;;;10.82;;
72422;SDS011;71399;54.146;38.734;2024-03-02T02:43:58;25.67;;;8.70;;
72422;SDS011;71399;54.146;38.734;2024-03-02T02:46:25;23.65;;;9.20;;
72422;SDS011;71399;54.146;38.734;2024-03-02T02:48:51;23.88;;;9.48;;
72422;SDS011;71399;54.146;38.734;2024-03-02T02:51:18;21.95;;;8.20;;
72422;SDS011;71399;54.146;38.734;2024-03-02T02:53:45;19.10;;;8.60;;
72422;SDS011;71399;54.146;38.734;2024-03-02T02:56:11;26.08;;;9.73;;
72422;SDS011;71399;54.146;38.734;2024-03-02T02:58:39;24.25;;;9.73;;
72422;SDS011;71399;54.146;38.734;2024-03-02T03:01:07;19.17;;;8.30;;
72422;SDS011;71399;54.146;38.734;2024-03-02T03:03:33;20.80;;;9.57;;
72422;SDS011;71399;54.146;38.734;2024-03-02T03:06:00;23.70;;;9.45;;
72422;SDS011;71399;54.146;38.734;2024-03-02T03:08:26;14.88;;;7.40;;
72422;SDS011;71399;54.146;38.734;2024-03-02T03:10:52;18.15;;;7.25;;
72422;SDS011;71399;54.146;38.734;2024-03-02T03:13:18;14.10;;;5.93;;
72422;SDS011;71399;54.146;38.734;2024-03-02T03:15:45;12.27;;;5.93;;
72422;SDS011;71399;54.146;38.734;2024-03-02T03:18:11;13.18;;;4.95;;
72422;SDS011;71399;54.146;38.734;2024-03-02T03:20:37;12.63;;;5.47;;
72422;SDS011;71399;54.146;38.734;2024-03-02T03:23:04;11.82;;;5.40;;
72422;SDS011;71399;54.146;38.734;2024-03-02T03:25:30;14.38;;;5.88;;
72422;SDS011;71399;54.146;38.734;2024-03-02T03:27:56;15.90;;;6.47;;
72422;SDS011;71399;54.146;38.734;2024-03-02T03:30:23;13.40;;;6.78;;
72422;SDS011;71399;54.146;38.734;2024-03-02T03:32:49;15.27;;;5.70;;
72422;SDS011;71399;54.146;38.734;2024-03-02T03:35:15;12.43;;;5.07;;
72422;SDS011;71399;54.146;38.734;2024-03-02T03:37:42;12.18;;;5.80;;
72422;SDS011;71399;54.146;38.734;2024-03-02T03:40:08;14.30;;;6.45;;
72422;SDS011;71399;54.146;38.734;2024-03-02T03:42:39;10.95;;;5.43;;
72422;SDS011;71399;54.146;38.734;2024-03-02T03:45:06;19.23;;;6.93;;
72422;SDS011;71399;54.146;38.734;2024-03-02T03:47:33;15.55;;;6.40;;
72422;SDS011;71399;54.146;38.734;2024-03-02T03:49:59;12.25;;;5.72;;
72422;SDS011;71399;54.146;38.734;2024-03-02T03:52:25;11.38;;;5.25;;
72422;SDS011;71399;54.146;38.734;2024-03-02T03:54:51;13.10;;;5.03;;
72422;SDS011;71399;54.146;38.734;2024-03-02T03:57:18;20.85;;;7.10;;
72422;SDS011;71399;54.146;38.734;2024-03-02T03:59:44;27.10;;;7.97;;
72422;SDS011;71399;54.146;38.734;2024-03-02T04:02:11;28.17;;;8.00;;
72422;SDS011;71399;54.146;38.734;2024-03-02T04:04:38;30.85;;;10.25;;
72422;SDS011;71399;54.146;38.734;2024-03-02T04:07:04;17.60;;;7.65;;
72422;SDS011;71399;54.146;38.734;2024-03-02T04:09:31;20.95;;;7.70;;
72422;SDS011;71399;54.146;38.734;2024-03-02T04:11:57;22.85;;;9.45;;
72422;SDS011;71399;54.146;38.734;2024-03-02T04:14:23;21.85;;;8.35;;
72422;SDS011;71399;54.146;38.734;2024-03-02T04:16:49;26.17;;;8.25;;
72422;SDS011;71399;54.146;38.734;2024-03-02T04:19:15;18.48;;;8.60;;
72422;SDS011;71399;54.146;38.734;2024-03-02T04:21:42;15.15;;;6.22;;
72422;SDS011;71399;54.146;38.734;2024-03-02T04:24:08;83.93;;;9.57;;
72422;SDS011;71399;54.146;38.734;2024-03-02T04:26:34;159.30;;;12.27;;
72422;SDS011;71399;54.146;38.734;2024-03-02T04:29:00;113.40;;;11.88;;
72422;SDS011;71399;54.146;38.734;2024-03-02T04:31:27;104.20;;;11.93;;
72422;SDS011;71399;54.146;38.734;2024-03-02T04:33:53;114.10;;;13.45;;
72422;SDS011;71399;54.146;38.734;2024-03-02T04:36:19;255.90;;;21.63;;
72422;SDS011;71399;54.146;38.734;2024-03-02T04:38:47;328.10;;;22.33;;
72422;SDS011;71399;54.146;38.734;2024-03-02T04:41:13;378.65;;;30.30;;
72422;SDS011;71399;54.146;38.734;2024-03-02T04:43:40;361.30;;;26.48;;
72422;SDS011;71399;54.146;38.734;2024-03-02T04:46:06;306.67;;;17.38;;
72422;SDS011;71399;54.146;38.734;2024-03-02T04:48:33;317.90;;;23.88;;
72422;SDS011;71399;54.146;38.734;2024-03-02T04:51:00;58.60;;;10.82;;
72422;SDS011;71399;54.146;38.734;2024-03-02T04:53:26;16.33;;;6.78;;
72422;SDS011;71399;54.146;38.734;2024-03-02T04:55:52;8.18;;;4.90;;
72422;SDS011;71399;54.146;38.734;2024-03-02T04:58:21;9.90;;;5.75;;
72422;SDS011;71399;54.146;38.734;2024-03-02T05:00:47;11.35;;;5.65;;
72422;SDS011;71399;54.146;38.734;2024-03-02T05:03:14;12.55;;;6.28;;
72422;SDS011;71399;54.146;38.734;2024-03-02T05:05:40;23.92;;;6.20;;
72422;SDS011;71399;54.146;38.734;2024-03-02T05:08:06;91.60;;;8.98;;
72422;SDS011;71399;54.146;38.734;2024-03-02T05:10:32;16.50;;;6.68;;
72422;SDS011;71399;54.146;38.734;2024-03-02T05:12:58;30.90;;;7.90;;
72422;SDS011;71399;54.146;38.734;2024-03-02T05:15:25;112.70;;;12.52;;
72422;SDS011;71399;54.146;38.734;2024-03-02T05:17:51;65.70;;;11.75;;
72422;SDS011;71399;54.146;38.734;2024-03-02T05:20:19;33.00;;;11.20;;
72422;SDS011;71399;54.146;38.734;2024-03-02T05:22:45;351.05;;;26.90;;
72422;SDS011;71399;54.146;38.734;2024-03-02T05:25:12;273.45;;;20.38;;
72422;SDS011;71399;54.146;38.734;2024-03-02T05:27:39;305.45;;;22.70;;
72422;SDS011;71399;54.146;38.734;2024-03-02T05:30:05;134.20;;;14.63;;
72422;SDS011;71399;54.146;38.734;2024-03-02T05:32:33;84.97;;;10.88;;
72422;SDS011;71399;54.146;38.734;2024-03-02T05:34:59;135.70;;;16.55;;
72422;SDS011;71399;54.146;38.734;2024-03-02T05:37:26;71.07;;;12.95;;
72422;SDS011;71399;54.146;38.734;2024-03-02T05:39:52;35.72;;;11.50;;
72422;SDS011;71399;54.146;38.734;2024-03-02T05:42:19;31.42;;;11.48;;
72422;SDS011;71399;54.146;38.734;2024-03-02T05:44:45;27.98;;;9.18;;
72422;SDS011;71399;54.146;38.734;2024-03-02T05:47:11;21.45;;;8.77;;
72422;SDS011;71399;54.146;38.734;2024-03-02T05:49:37;26.05;;;8.60;;
72422;SDS011;71399;54.146;38.734;2024-03-02T05:52:04;20.40;;;9.15;;
72422;SDS011;71399;54.146;38.734;2024-03-02T05:54:31;23.60;;;8.73;;
72422;SDS011;71399;54.146;38.734;2024-03-02T05:56:57;21.05;;;8.30;;
72422;SDS011;71399;54.146;38.734;2024-03-02T05:59:42;24.88;;;8.88;;
72422;SDS011;71399;54.146;38.734;2024-03-02T06:02:09;21.23;;;8.60;;
72422;SDS011;71399;54.146;38.734;2024-03-02T06:04:35;26.02;;;9.10;;
72422;SDS011;71399;54.146;38.734;2024-03-02T06:07:01;26.13;;;9.23;;
72422;SDS011;71399;54.146;38.734;2024-03-02T06:09:28;25.27;;;9.43;;
72422;SDS011;71399;54.146;38.734;2024-03-02T06:11:55;25.30;;;9.95;;
72422;SDS011;71399;54.146;38.734;2024-03-02T06:14:21;21.52;;;9.20;;
72422;SDS011;71399;54.146;38.734;2024-03-02T06:16:47;16.73;;;7.63;;
72422;SDS011;71399;54.146;38.734;2024-03-02T06:19:14;21.40;;;7.95;;
72422;SDS011;71399;54.146;38.734;2024-03-02T06:21:40;17.50;;;8.13;;
72422;SDS011;71399;54.146;38.734;2024-03-02T06:24:06;17.83;;;7.95;;
72422;SDS011;71399;54.146;38.734;2024-03-02T06:26:32;23.98;;;10.20;;
72422;SDS011;71399;54.146;38.734;2024-03-02T06:28:58;23.08;;;8.13;;
72422;SDS011;71399;54.146;38.734;2024-03-02T06:31:25;22.58;;;7.70;;
72422;SDS011;71399;54.146;38.734;2024-03-02T06:33:51;18.42;;;7.38;;
72422;SDS011;71399;54.146;38.734;2024-03-02T06:36:17;17.17;;;7.57;;
72422;SDS011;71399;54.146;38.734;2024-03-02T06:38:43;20.50;;;7.80;;
72422;SDS011;71399;54.146;38.734;2024-03-02T06:41:09;20.58;;;9.13;;
72422;SDS011;71399;54.146;38.734;2024-03-02T06:43:36;25.10;;;7.22;;
72422;SDS011;71399;54.146;38.734;2024-03-02T06:46:03;20.13;;;7.40;;
72422;SDS011;71399;54.146;38.734;2024-03-02T06:48:30;20.30;;;7.50;;
72422;SDS011;71399;54.146;38.734;2024-03-02T06:50:56;20.25;;;8.40;;
72422;SDS011;71399;54.146;38.734;2024-03-02T06:53:23;16.70;;;6.80;;
72422;SDS011;71399;54.146;38.734;2024-03-02T06:55:50;17.63;;;7.35;;
72422;SDS011;71399;54.146;38.734;2024-03-02T06:58:16;18.20;;;7.88;;
72422;SDS011;71399;54.146;38.734;2024-03-02T07:00:42;28.20;;;9.25;;
72422;SDS011;71399;54.146;38.734;2024-03-02T07:03:13;20.20;;;9.07;;
72422;SDS011;71399;54.146;38.734;2024-03-02T07:05:40;24.67;;;8.60;;
72422;SDS011;71399;54.146;38.734;2024-03-02T07:08:06;18.73;;;7.28;;
72422;SDS011;71399;54.146;38.734;2024-03-02T07:10:32;24.38;;;7.70;;
72422;SDS011;71399;54.146;38.734;2024-03-02T07:12:58;18.35;;;7.55;;
72422;SDS011;71399;54.146;38.734;2024-03-02T07:15:25;18.35;;;7.57;;
72422;SDS011;71399;54.146;38.734;2024-03-02T07:17:54;19.35;;;6.97;;
72422;SDS011;71399;54.146;38.734;2024-03-02T07:20:21;16.70;;;7.40;;
72422;SDS011;71399;54.146;38.734;2024-03-02T07:22:47;18.83;;;7.93;;
72422;SDS011;71399;54.146;38.734;2024-03-02T07:25:13;16.27;;;6.93;;
72422;SDS011;71399;54.146;38.734;2024-03-02T07:27:40;17.95;;;7.47;;
72422;SDS011;71399;54.146;38.734;2024-03-02T07:30:06;21.05;;;7.95;;
72422;SDS011;71399;54.146;38.734;2024-03-02T07:32:33;20.58;;;8.20;;
72422;SDS011;71399;54.146;38.734;2024-03-02T07:34:59;18.40;;;7.47;;
72422;SDS011;71399;54.146;38.734;2024-03-02T07:37:30;16.65;;;7.55;;
72422;SDS011;71399;54.146;38.734;2024-03-02T07:39:56;17.85;;;7.20;;
72422;SDS011;71399;54.146;38.734;2024-03-02T07:42:23;20.05;;;9.60;;
72422;SDS011;71399;54.146;38.734;2024-03-02T07:44:50;17.63;;;8.50;;
72422;SDS011;71399;54.146;38.734;2024-03-02T07:47:16;20.70;;;8.35;;
72422;SDS011;71399;54.146;38.734;2024-03-02T07:49:44;18.90;;;8.18;;
72422;SDS011;71399;54.146;38.734;2024-03-02T07:52:12;18.50;;;8.75;;
72422;SDS011;71399;54.146;38.734;2024-03-02T07:54:38;24.23;;;8.93;;
72422;SDS011;71399;54.146;38.734;2024-03-02T07:57:04;21.48;;;8.18;;
72422;SDS011;71399;54.146;38.734;2024-03-02T07:59:31;27.20;;;10.63;;
72422;SDS011;71399;54.146;38.734;2024-03-02T08:01:57;28.30;;;10.95;;
72422;SDS011;71399;54.146;38.734;2024-03-02T08:04:24;24.63;;;9.38;;
72422;SDS011;71399;54.146;38.734;2024-03-02T08:06:50;23.35;;;8.20;;
72422;SDS011;71399;54.146;38.734;2024-03-02T08:09:16;24.20;;;10.20;;
72422;SDS011;71399;54.146;38.734;2024-03-02T08:11:43;25.90;;;9.90;;
72422;SDS011;71399;54.146;38.734;2024-03-02T08:14:09;22.25;;;9.68;;
72422;SDS011;71399;54.146;38.734;2024-03-02T08:16:35;28.77;;;10.52;;
72422;SDS011;71399;54.146;38.734;2024-03-02T08:19:01;22.00;;;10.38;;
72422;SDS011;71399;54.146;38.734;2024-03-02T08:21:29;22.45;;;8.55;;
72422;SDS011;71399;54.146;38.734;2024-03-02T08:23:56;22.42;;;8.70;;
72422;SDS011;71399;54.146;38.734;2024-03-02T08:26:24;19.50;;;8.05;;
72422;SDS011;71399;54.146;38.734;2024-03-02T08:28:50;25.88;;;9.13;;
72422;SDS011;71399;54.146;38.734;2024-03-02T08:31:16;25.52;;;8.77;;
72422;SDS011;71399;54.146;38.734;2024-03-02T08:33:42;22.20;;;8.80;;
72422;SDS011;71399;54.146;38.734;2024-03-02T08:36:09;22.25;;;9.32;;
72422;SDS011;71399;54.146;38.734;2024-03-02T08:38:35;21.40;;;8.88;;
72422;SDS011;71399;54.146;38.734;2024-03-02T08:41:01;29.55;;;9.20;;
72422;SDS011;71399;54.146;38.734;2024-03-02T08:43:29;24.10;;;9.23;;
72422;SDS011;71399;54.146;38.734;2024-03-02T08:45:55;17.02;;;8.23;;
72422;SDS011;71399;54.146;38.734;2024-03-02T08:48:22;28.95;;;8.77;;
72422;SDS011;71399;54.146;38.734;2024-03-02T08:50:48;22.45;;;8.07;;
72422;SDS011;71399;54.146;38.734;2024-03-02T08:53:14;17.63;;;7.45;;
72422;SDS011;71399;54.146;38.734;2024-03-02T08:55:47;17.83;;;7.53;;
72422;SDS011;71399;54.146;38.734;2024-03-02T08:58:13;22.73;;;8.15;;
72422;SDS011;71399;54.146;38.734;2024-03-02T09:00:40;30.50;;;8.38;;
72422;SDS011;71399;54.146;38.734;2024-03-02T09:03:07;23.40;;;7.30;;
72422;SDS011;71399;54.146;38.734;2024-03-02T09:05:34;19.67;;;8.05;;
72422;SDS011;71399;54.146;38.734;2024-03-02T09:08:00;25.05;;;8.85;;
72422;SDS011;71399;54.146;38.734;2024-03-02T09:10:26;20.38;;;8.85;;
72422;SDS011;71399;54.146;38.734;2024-03-02T09:12:52;24.58;;;9.15;;
72422;SDS011;71399;54.146;38.734;2024-03-02T09:15:18;21.17;;;8.30;;
72422;SDS011;71399;54.146;38.734;2024-03-02T09:17:45;21.02;;;8.85;;
72422;SDS011;71399;54.146;38.734;2024-03-02T09:20:11;17.65;;;8.05;;
72422;SDS011;71399;54.146;38.734;2024-03-02T09:22:39;29.60;;;8.98;;
72422;SDS011;71399;54.146;38.734;2024-03-02T09:25:07;17.65;;;8.38;;
72422;SDS011;71399;54.146;38.734;2024-03-02T09:27:37;24.85;;;8.60;;
72422;SDS011;71399;54.146;38.734;2024-03-02T09:30:05;17.52;;;7.72;;
72422;SDS011;71399;54.146;38.734;2024-03-02T09:32:33;27.40;;;9.52;;
72422;SDS011;71399;54.146;38.734;2024-03-02T09:35:00;26.27;;;9.85;;
72422;SDS011;71399;54.146;38.734;2024-03-02T09:37:26;23.88;;;10.05;;
72422;SDS011;71399;54.146;38.734;2024-03-02T09:39:54;23.98;;;9.25;;
72422;SDS011;71399;54.146;38.734;2024-03-02T09:42:20;24.65;;;8.93;;
72422;SDS011;71399;54.146;38.734;2024-03-02T09:44:47;25.75;;;9.73;;
72422;SDS011;71399;54.146;38.734;2024-03-02T09:47:14;27.05;;;8.93;;
72422;SDS011;71399;54.146;38.734;2024-03-02T09:49:40;18.65;;;8.35;;
72422;SDS011;71399;54.146;38.734;2024-03-02T09:52:06;25.77;;;9.13;;
72422;SDS011;71399;54.146;38.734;2024-03-02T09:54:33;19.75;;;8.75;;
72422;SDS011;71399;54.146;38.734;2024-03-02T09:56:59;23.75;;;8.40;;
72422;SDS011;71399;54.146;38.734;2024-03-02T09:59:27;18.52;;;7.38;;
72422;SDS011;71399;54.146;38.734;2024-03-02T10:02:01;20.40;;;7.38;;
72422;SDS011;71399;54.146;38.734;2024-03-02T10:04:29;15.48;;;5.70;;
72422;SDS011;71399;54.146;38.734;2024-03-02T10:07:11;19.65;;;7.28;;
72422;SDS011;71399;54.146;38.734;2024-03-02T10:09:40;19.33;;;7.68;;
72422;SDS011;71399;54.146;38.734;2024-03-02T10:12:08;29.15;;;9.85;;
72422;SDS011;71399;54.146;38.734;2024-03-02T10:14:35;21.38;;;9.68;;
72422;SDS011;71399;54.146;38.734;2024-03-02T10:17:05;23.48;;;10.05;;
72422;SDS011;71399;54.146;38.734;2024-03-02T10:19:33;22.73;;;9.30;;
72422;SDS011;71399;54.146;38.734;2024-03-02T10:22:01;22.50;;;9.02;;
72422;SDS011;71399;54.146;38.734;2024-03-02T10:24:36;22.13;;;9.77;;
72422;SDS011;71399;54.146;38.734;2024-03-02T10:27:09;25.75;;;10.07;;
72422;SDS011;71399;54.146;38.734;2024-03-02T10:29:40;22.55;;;10.15;;
72422;SDS011;71399;54.146;38.734;2024-03-02T10:32:10;27.13;;;11.02;;
72422;SDS011;71399;54.146;38.734;2024-03-02T10:34:37;25.02;;;10.02;;
72422;SDS011;71399;54.146;38.734;2024-03-02T10:37:06;28.73;;;10.52;;
72422;SDS011;71399;54.146;38.734;2024-03-02T10:39:36;22.25;;;8.95;;
72422;SDS011;71399;54.146;38.734;2024-03-02T10:42:03;23.95;;;10.38;;
72422;SDS011;71399;54.146;38.734;2024-03-02T10:44:30;27.75;;;10.25;;
72422;SDS011;71399;54.146;38.734;2024-03-02T10:46:59;23.65;;;9.85;;
72422;SDS011;71399;54.146;38.734;2024-03-02T10:49:28;22.02;;;9.23;;
72422;SDS011;71399;54.146;38.734;2024-03-02T10:51:55;23.20;;;9.77;;
72422;SDS011;71399;54.146;38.734;2024-03-02T10:54:22;29.48;;;9.32;;
72422;SDS011;71399;54.146;38.734;2024-03-02T10:56:56;26.20;;;8.65;;
72422;SDS011;71399;54.146;38.734;2024-03-02T11:02:10;27.92;;;9.10;;
72422;SDS011;71399;54.146;38.734;2024-03-02T11:04:38;21.95;;;9.00;;
72422;SDS011;71399;54.146;38.734;2024-03-02T11:07:07;23.20;;;8.70;;
72422;SDS011;71399;54.146;38.734;2024-03-02T11:09:54;29.27;;;8.45;;
72422;SDS011;71399;54.146;38.734;2024-03-02T11:12:29;20.30;;;8.80;;
72422;SDS011;71399;54.146;38.734;2024-03-02T11:15:03;21.85;;;8.00;;
72422;SDS011;71399;54.146;38.734;2024-03-02T11:17:35;29.15;;;7.90;;
72422;SDS011;71399;54.146;38.734;2024-03-02T11:20:02;25.38;;;8.23;;
72422;SDS011;71399;54.146;38.734;2024-03-02T11:22:30;26.70;;;8.85;;
72422;SDS011;71399;54.146;38.734;2024-03-02T11:24:57;25.27;;;8.68;;
72422;SDS011;71399;54.146;38.734;2024-03-02T11:33:01;30.80;;;10.18;;
72422;SDS011;71399;54.146;38.734;2024-03-02T11:35:37;27.27;;;9.63;;
72422;SDS011;71399;54.146;38.734;2024-03-02T11:38:08;23.25;;;9.27;;
72422;SDS011;71399;54.146;38.734;2024-03-02T11:40:35;20.48;;;9.35;;
72422;SDS011;71399;54.146;38.734;2024-03-02T11:43:02;35.95;;;9.80;;
72422;SDS011;71399;54.146;38.734;2024-03-02T11:45:30;27.80;;;9.15;;
72422;SDS011;71399;54.146;38.734;2024-03-02T11:47:59;27.40;;;8.60;;
72422;SDS011;71399;54.146;38.734;2024-03-02T11:52:58;26.33;;;8.82;;
72422;SDS011;71399;54.146;38.734;2024-03-02T11:55:26;37.17;;;9.23;;
72422;SDS011;71399;54.146;38.734;2024-03-02T11:57:53;28.60;;;8.18;;
72422;SDS011;71399;54.146;38.734;2024-03-02T12:00:20;21.60;;;7.00;;
72422;SDS011;71399;54.146;38.734;2024-03-02T12:03:03;22.23;;;6.63;;
72422;SDS011;71399;54.146;38.734;2024-03-02T12:05:31;17.65;;;7.10;;
72422;SDS011;71399;54.146;38.734;2024-03-02T12:07:58;32.97;;;7.30;;
72422;SDS011;71399;54.146;38.734;2024-03-02T12:10:26;20.88;;;6.57;;
72422;SDS011;71399;54.146;38.734;2024-03-02T12:12:56;19.15;;;6.85;;
72422;SDS011;71399;54.146;38.734;2024-03-02T12:15:25;25.58;;;7.72;;
72422;SDS011;71399;54.146;38.734;2024-03-02T12:17:56;24.90;;;7.40;;
72422;SDS011;71399;54.146;38.734;2024-03-02T12:20:24;25.17;;;7.88;;
72422;SDS011;71399;54.146;38.734;2024-03-02T12:22:54;23.05;;;7.50;;
72422;SDS011;71399;54.146;38.734;2024-03-02T12:25:22;28.52;;;6.72;;
72422;SDS011;71399;54.146;38.734;2024-03-02T12:27:50;24.42;;;7.63;;
72422;SDS011;71399;54.146;38.734;2024-03-02T12:30:19;22.85;;;6.90;;
72422;SDS011;71399;54.146;38.734;2024-03-02T12:32:47;22.55;;;6.47;;
72422;SDS011;71399;54.146;38.734;2024-03-02T12:35:13;24.45;;;7.82;;
72422;SDS011;71399;54.146;38.734;2024-03-02T12:37:47;18.98;;;6.18;;
72422;SDS011;71399;54.146;38.734;2024-03-02T12:40:15;33.30;;;7.18;;
72422;SDS011;71399;54.146;38.734;2024-03-02T12:42:47;25.95;;;6.95;;
72422;SDS011;71399;54.146;38.734;2024-03-02T12:45:15;25.80;;;6.80;;
72422;SDS011;71399;54.146;38.734;2024-03-02T12:47:41;32.00;;;7.10;;
72422;SDS011;71399;54.146;38.734;2024-03-02T12:50:09;29.05;;;7.68;;
72422;SDS011;71399;54.146;38.734;2024-03-02T12:52:36;18.15;;;7.00;;
72422;SDS011;71399;54.146;38.734;2024-03-02T12:55:03;33.92;;;7.18;;
72422;SDS011;71399;54.146;38.734;2024-03-02T12:57:32;27.35;;;6.18;;
72422;SDS011;71399;54.146;38.734;2024-03-02T12:59:59;24.27;;;7.07;;
72422;SDS011;71399;54.146;38.734;2024-03-02T13:02:30;29.98;;;8.07;;
72422;SDS011;71399;54.146;38.734;2024-03-02T13:05:00;24.65;;;8.27;;
72422;SDS011;71399;54.146;38.734;2024-03-02T13:07:27;25.98;;;8.68;;
72422;SDS011;71399;54.146;38.734;2024-03-02T13:09:55;24.45;;;8.38;;
72422;SDS011;71399;54.146;38.734;2024-03-02T13:12:22;31.77;;;8.40;;
72422;SDS011;71399;54.146;38.734;2024-03-02T13:14:53;33.50;;;7.93;;
72422;SDS011;71399;54.146;38.734;2024-03-02T13:17:20;31.55;;;7.30;;
72422;SDS011;71399;54.146;38.734;2024-03-02T13:19:53;18.20;;;6.43;;
72422;SDS011;71399;54.146;38.734;2024-03-02T13:22:21;20.15;;;6.55;;
72422;SDS011;71399;54.146;38.734;2024-03-02T13:24:51;39.75;;;7.53;;
72422;SDS011;71399;54.146;38.734;2024-03-02T13:27:21;30.10;;;6.22;;
72422;SDS011;71399;54.146;38.734;2024-03-02T13:29:48;30.65;;;6.47;;
72422;SDS011;71399;54.146;38.734;2024-03-02T13:32:16;30.60;;;7.18;;
72422;SDS011;71399;54.146;38.734;2024-03-02T13:34:46;21.23;;;6.68;;
72422;SDS011;71399;54.146;38.734;2024-03-02T13:37:12;21.08;;;6.72;;
72422;SDS011;71399;54.146;38.734;2024-03-02T13:39:39;24.08;;;6.28;;
72422;SDS011;71399;54.146;38.734;2024-03-02T13:42:09;25.90;;;7.47;;
72422;SDS011;71399;54.146;38.734;2024-03-02T13:44:37;25.88;;;6.95;;
72422;SDS011;71399;54.146;38.734;2024-03-02T13:47:03;26.92;;;6.75;;
72422;SDS011;71399;54.146;38.734;2024-03-02T13:49:30;22.98;;;7.35;;
72422;SDS011;71399;54.146;38.734;2024-03-02T13:52:05;31.38;;;8.05;;
72422;SDS011;71399;54.146;38.734;2024-03-02T13:54:43;29.88;;;8.15;;
72422;SDS011;71399;54.146;38.734;2024-03-02T13:57:11;23.83;;;7.32;;
72422;SDS011;71399;54.146;38.734;2024-03-02T13:59:38;25.75;;;7.20;;
72422;SDS011;71399;54.146;38.734;2024-03-02T14:02:05;21.73;;;7.35;;
72422;SDS011;71399;54.146;38.734;2024-03-02T14:04:33;26.13;;;6.97;;
72422;SDS011;71399;54.146;38.734;2024-03-02T14:07:00;18.40;;;6.50;;
72422;SDS011;71399;54.146;38.734;2024-03-02T14:09:27;26.73;;;7.07;;
72422;SDS011;71399;54.146;38.734;2024-03-02T14:11:54;18.75;;;6.95;;
72422;SDS011;71399;54.146;38.734;2024-03-02T14:14:21;36.03;;;6.78;;
72422;SDS011;71399;54.146;38.734;2024-03-02T14:16:49;29.85;;;5.82;;
72422;SDS011;71399;54.146;38.734;2024-03-02T14:19:16;25.02;;;5.60;;
72422;SDS011;71399;54.146;38.734;2024-03-02T14:21:42;14.88;;;6.10;;
72422;SDS011;71399;54.146;38.734;2024-03-02T14:24:08;18.13;;;5.57;;
72422;SDS011;71399;54.146;38.734;2024-03-02T14:26:35;22.13;;;5.57;;
72422;SDS011;71399;54.146;38.734;2024-03-02T14:29:02;20.20;;;5.20;;
72422;SDS011;71399;54.146;38.734;2024-03-02T14:31:29;21.77;;;6.03;;
72422;SDS011;71399;54.146;38.734;2024-03-02T14:33:59;16.88;;;5.03;;
72422;SDS011;71399;54.146;38.734;2024-03-02T14:36:26;21.48;;;5.60;;
72422;SDS011;71399;54.146;38.734;2024-03-02T14:38:53;21.88;;;6.07;;